< Typhoon 200019 2000 Season Typhoon 200021 >
Typhoon 200020 (XANGSANE)
General InformationTrack Information on Google MapsDetailed Wind InformationList of All Images || NewsDisaster Info.ResourceGoogle EarthGE AnimationAtom FeedGeoJSON
Detalied Best Track (Time Zone = UTC)
Year Month Day Hour Lat. Long. Pressure (hPa) Wind (kt) Class Image Chart
2000 10 24 18 8.3 139.3 1008 0 2 Image Chart
2000 10 25 00 8.4 138.1 1008 0 2 Image Chart
2000 10 25 06 9.1 136.9 1004 0 2 Image Chart
2000 10 25 12 9.1 135.4 1004 0 2 Image Chart
2000 10 25 18 9.2 133.9 1004 0 2 Image Chart
2000 10 26 00 10.0 133.3 1004 0 2 Image Chart
2000 10 26 06 10.3 131.4 998 35 3 Image Chart
2000 10 26 12 10.6 130.3 996 40 3 Image Chart
2000 10 26 18 11.0 128.8 992 45 3 Image Chart
2000 10 27 00 12.3 127.8 985 50 4 Image Chart
2000 10 27 06 12.6 126.1 980 55 4 Image Chart
2000 10 27 12 13.3 125.0 975 60 4 Image Chart
2000 10 27 18 13.6 123.6 975 60 4 Image Chart
2000 10 28 00 13.7 122.3 980 55 4 Image Chart
2000 10 28 06 14.2 121.3 985 50 4 Image Chart
2000 10 28 12 14.8 120.5 990 45 3 Image Chart
2000 10 28 18 15.6 119.8 990 45 3 Image Chart
2000 10 29 00 15.9 119.1 990 45 3 Image Chart
2000 10 29 06 15.9 118.2 985 50 4 Image Chart
2000 10 29 12 15.9 118.1 980 55 4 Image Chart
2000 10 29 18 16.0 118.1 975 60 4 Image Chart
2000 10 30 00 16.5 118.3 965 70 5 Image Chart
2000 10 30 06 16.7 118.8 960 75 5 Image Chart
2000 10 30 12 17.2 119.2 960 75 5 Image Chart
2000 10 30 18 18.0 119.5 960 75 5 Image Chart
2000 10 31 00 18.5 119.6 960 75 5 Image Chart
2000 10 31 06 19.7 120.2 960 75 5 Image Chart
2000 10 31 12 20.9 120.5 960 75 5 Image Chart
2000 10 31 18 22.4 121.2 965 70 5 Image Chart
2000 11 1 00 24.3 122.0 975 60 4 Image Chart
2000 11 1 03 25.2 122.3 985 50 4 Image Chart
2000 11 1 06 26.2 123.0 985 50 4 Image Chart
2000 11 1 09 27.3 124.0 985 50 4 Image Chart
2000 11 1 12 28.6 125.7 992 0 6 Image Chart
2000 11 1 18 31.1 128.9 1000 0 6 Image Chart
2000 11 2 00 32.7 131.8 1006 0 6 Image Chart
2000 11 2 06 33.4 134.9 1006 0 6 Image Chart
Japan Meteorological Agency Best Track Data | Correction Date : 2001-12-21
< Typhoon 200019 2000 Season Typhoon 200021 >

Help